• Join FlightAware (Why Join?)
  • Login
  • US Flag 
05:43AM EDT


 

Airport Tracker/Info


-or-


 

Live Flight TrackerFlight Track Log ✈ DAL6035 ✈ 16-Apr-2013 ✈ KMHT - KLGA

Flight Track Log - Related Links

Times and Time Zones

All times are in EDT time to prevent confusion due to time zone crossing. See the DAL6035 flight status page for this flight to view local times or setup timezone preferences in your user account.

Time Position Orientation Groundspeed Altitude Reporting Facility
EDT Latitude Longitude Course Direction KTS MPH feet Rate Location/Type
01:55PM 42.9333 -71.4500 262° West 131 151 1,000  Level KA90
01:57PM 42.9178 -71.5158 252° West 151 174 3,500 2,100 Climbing Boston Center
01:58PM 42.7256 -71.6799 228° Southwest  Level Estimated
01:58PM 42.9722 -71.5775 320° Northwest 194 223 5,800  Level Boston Center
01:59PM 42.6564 -71.7610 236° Southwest  Level Estimated
01:59PM 43.0186 -71.6222 325° Northwest 232 267 9,200  Level Boston Center
02:00PM 42.5872 -71.8418 231° Southwest  Level Estimated
02:00PM 43.0086 -71.6992 260° West 187 215 10,600  Level Boston Center
02:01PM 42.5741 -71.9645 262° West  Level FlightAware Approximate
02:01PM 42.9694 -71.7733 234° Southwest 223 257 12,000  Level Boston Center
02:02PM 42.9136 -71.8647 230° Southwest 281 323 13,600 1,680 Climbing Boston Center
02:03PM 42.8642 -71.9444 230° Southwest 304 350 15,300 1,680 Climbing Boston Center
02:04PM 42.8039 -72.0411 230° Southwest 309 356 17,000 1,260 Climbing Boston Center
02:05PM 42.7542 -72.1206 230° Southwest 309 356 17,900 480 Climbing Boston Center
02:06PM 42.6878 -72.2283 230° Southwest 321 369 18,000  Climbing Boston Center
02:07PM 42.6256 -72.3300 230° Southwest 339 390 18,000  Level Boston Center
02:08PM 42.5608 -72.4317 229° Southwest 357 411 18,000  Level Boston Center
02:09PM 42.4961 -72.5331 229° Southwest 362 417 18,000  Level Boston Center
02:10PM 42.4294 -72.6369 229° Southwest 362 417 18,000  Level Boston Center
02:11PM 42.3667 -72.7408 231° Southwest 362 417 18,000  Level Boston Center
02:12PM 42.2975 -72.8442 228° Southwest 362 417 18,000  Level Boston Center
02:13PM 42.2347 -72.9475 231° Southwest 362 417 18,000 -300 Level Boston Center
02:14PM 42.1694 -73.0508 230° Southwest 362 417 17,400 -960 Descending Boston Center
02:15PM 42.1044 -73.1481 228° Southwest 356 410 16,100 -720 Descending Boston Center
02:16PM 42.0411 -73.2508 230° Southwest 361 415 16,100  Level Boston Center
02:17PM 41.9736 -73.3533 228° Southwest 361 415 16,100 -60 Level Boston Center
02:18PM 41.9125 -73.4417 227° Southwest 361 415 16,000 -840 Descending Boston Center
02:19PM 41.8139 -73.5097 207° Southwest 361 415 14,400 -1,680 Descending Boston Center
02:20PM 41.6500 -73.6000 202° Southwest 308 354 11,300 -1,440 Descending New York TRACON
02:21PM 41.5833 -73.6500 209° Southwest 265 305 10,300 -1,020 Descending New York TRACON
02:22PM 41.5000 -73.6500 180° South 275 316 9,300 -1,080 Descending New York TRACON
02:23PM 41.4333 -73.6333 169° South 255 293 8,200 -1,440 Descending New York TRACON
02:24PM 41.3667 -73.6333 180° South 255 293 6,600 -1,680 Descending New York TRACON
02:25PM 41.3000 -73.6167 169° South 235 270 5,100 -900 Descending New York TRACON
02:26PM 41.2333 -73.6167 180° South 237 273 4,900 -600 Descending New York TRACON
02:27PM 41.1833 -73.6000 166° South 236 272 4,000 -480 Descending New York TRACON
02:28PM 41.1167 -73.6000 180° South 237 273 4,000  Level New York TRACON
02:29PM 41.0667 -73.6333 207° Southwest 186 214 4,000  Level New York TRACON
02:30PM 41.0167 -73.6667 207° Southwest 167 192 4,000  Level New York TRACON
02:31PM 40.9833 -73.7000 217° Southwest 160 184 4,000 -180 Level New York TRACON
02:32PM 40.9500 -73.7333 217° Southwest 163 188 3,700 -600 Descending New York TRACON
02:33PM 40.9000 -73.7667 207° Southwest 170 196 2,800 -900 Descending New York TRACON
02:34PM 40.8667 -73.8000 217° Southwest 167 192 2,000 -840 Descending New York TRACON